Time;durP1;ratioP1;P1;durP2;ratioP2;P2;SDS_P1;SDS_P2;PMS_P1;PMS_P2;Temp;Humidity;BMP_temperature;BMP_pressure;BME280_temperature;BME280_humidity;BME280_pressure;Samples;Min_cycle;Max_cycle;Signal;HPM_P1;HPM_P2
2022/06/01 00:00:54;;;;;;;3.78;1.70;;;15.70;99.90;;;;;;5033887;28;20029;-60
2022/06/01 00:03:21;;;;;;;6.35;1.90;;;15.50;99.90;;;;;;5033241;28;20068;-60
2022/06/01 00:05:47;;;;;;;3.90;1.90;;;15.60;99.90;;;;;;5033731;28;20033;-60
2022/06/01 00:08:12;;;;;;;3.28;1.60;;;15.50;99.90;;;;;;5033236;28;20034;-59
2022/06/01 00:10:39;;;;;;;3.05;1.65;;;15.70;99.90;;;;;;5032986;28;20073;-60
2022/06/01 00:13:05;;;;;;;3.42;1.60;;;15.50;99.90;;;;;;5034536;28;20090;-60
2022/06/01 00:15:31;;;;;;;4.85;1.88;;;15.60;99.90;;;;;;5033754;28;20043;-60
2022/06/01 00:17:58;;;;;;;4.05;1.63;;;15.50;99.90;;;;;;5033857;28;20025;-60
2022/06/01 00:20:25;;;;;;;2.85;1.70;;;15.50;99.90;;;;;;5033710;28;20030;-60
2022/06/01 00:22:50;;;;;;;4.20;1.77;;;15.40;99.90;;;;;;5033379;28;20112;-59
2022/06/01 00:25:16;;;;;;;2.58;1.60;;;15.50;99.90;;;;;;5033381;28;20164;-60
2022/06/01 00:27:42;;;;;;;3.28;1.70;;;15.50;99.90;;;;;;5033465;28;20391;-60
2022/06/01 00:30:12;;;;;;;2.88;1.80;;;15.50;99.90;;;;;;5032792;28;20037;-60
2022/06/01 00:32:37;;;;;;;4.50;1.88;;;15.40;99.90;;;;;;5033051;28;20602;-60
2022/06/01 00:35:05;;;;;;;4.68;1.77;;;15.50;99.90;;;;;;5033276;28;20112;-60
2022/06/01 00:37:31;;;;;;;3.45;1.63;;;15.40;99.90;;;;;;5033126;28;20427;-60
2022/06/01 00:39:57;;;;;;;1.60;1.50;;;15.50;99.90;;;;;;5032344;28;20179;-60
2022/06/01 00:42:29;;;;;;;4.43;1.88;;;15.60;99.90;;;;;;5033087;28;20080;-61
2022/06/01 00:44:54;;;;;;;4.53;1.90;;;15.70;99.90;;;;;;5033449;28;20021;-60
2022/06/01 00:47:23;;;;;;;3.38;1.77;;;15.80;99.90;;;;;;5033095;28;20026;-60
2022/06/01 00:49:55;;;;;;;2.90;1.60;;;15.80;99.90;;;;;;5033015;28;20478;-60
2022/06/01 00:52:35;;;;;;;5.43;1.85;;;15.80;99.90;;;;;;5033637;28;20053;-60
2022/06/01 00:55:15;;;;;;;2.95;2.00;;;15.90;99.90;;;;;;5033069;28;20064;-60
2022/06/01 00:57:42;;;;;;;3.33;1.70;;;15.80;99.90;;;;;;5033029;28;20057;-60
2022/06/01 01:00:20;;;;;;;2.85;1.83;;;15.80;99.90;;;;;;5032571;28;20025;-61
2022/06/01 01:02:47;;;;;;;3.67;1.90;;;15.70;99.90;;;;;;5032646;28;20555;-60
2022/06/01 01:05:14;;;;;;;3.38;1.80;;;15.60;99.90;;;;;;5032682;28;20025;-60
2022/06/01 01:07:41;;;;;;;3.33;1.80;;;15.70;99.90;;;;;;5032938;28;20410;-60
2022/06/01 01:10:08;;;;;;;4.53;1.70;;;15.70;99.90;;;;;;5033082;28;20033;-61
2022/06/01 01:15:20;;;;;;;4.53;1.80;;;15.90;99.90;;;;;;5055264;28;20044;-60
2022/06/01 01:17:48;;;;;;;2.83;1.60;;;15.90;99.90;;;;;;5032681;28;20026;-60
2022/06/01 01:20:15;;;;;;;5.30;1.80;;;16.10;99.90;;;;;;5032389;28;20057;-60
2022/06/01 01:23:05;;;;;;;2.40;1.92;;;16.00;99.90;;;;;;5032045;28;20509;-60
2022/06/01 01:25:40;;;;;;;4.03;1.70;;;16.10;99.90;;;;;;5029829;28;20036;-60
2022/06/01 01:28:09;;;;;;;2.83;1.98;;;16.00;99.90;;;;;;5030835;28;20029;-60
2022/06/01 01:30:34;;;;;;;3.80;1.75;;;16.10;99.90;;;;;;5032183;28;20478;-60
2022/06/01 01:33:04;;;;;;;4.15;2.08;;;16.10;99.90;;;;;;5032156;28;20113;-60
2022/06/01 01:35:30;;;;;;;4.75;1.90;;;16.00;99.90;;;;;;5032546;28;20044;-60
2022/06/01 01:38:01;;;;;;;2.28;1.65;;;16.10;99.90;;;;;;5031824;28;20055;-60
2022/06/01 01:40:27;;;;;;;4.85;1.92;;;16.00;99.90;;;;;;5032391;28;20045;-60
2022/06/01 01:42:54;;;;;;;3.42;1.70;;;16.10;99.90;;;;;;5032408;28;20029;-60
2022/06/01 01:45:29;;;;;;;5.30;1.70;;;16.10;99.90;;;;;;5031859;28;20049;-60
2022/06/01 01:47:55;;;;;;;2.55;1.58;;;16.30;99.90;;;;;;5032205;28;20021;-60
2022/06/01 01:50:23;;;;;;;2.78;1.65;;;16.20;99.90;;;;;;5031849;28;20037;-60
2022/06/01 01:52:49;;;;;;;2.47;1.70;;;16.30;99.90;;;;;;5031590;28;20044;-60
2022/06/01 01:55:21;;;;;;;3.47;1.58;;;16.40;99.90;;;;;;5032515;28;20206;-60
2022/06/01 01:58:17;;;;;;;4.07;1.80;;;16.30;99.90;;;;;;5031641;28;20030;-60
2022/06/01 02:00:52;;;;;;;2.60;1.60;;;16.30;99.90;;;;;;5031489;28;20041;-60
2022/06/01 02:03:30;;;;;;;6.60;1.60;;;16.20;99.90;;;;;;5031848;28;20028;-60
2022/06/01 02:06:14;;;;;;;2.55;1.60;;;16.10;99.90;;;;;;5031154;28;20495;-60
2022/06/01 02:09:03;;;;;;;3.58;1.67;;;16.20;99.90;;;;;;5031405;28;20021;-61
2022/06/01 02:14:37;;;;;;;4.63;1.63;;;16.20;99.90;;;;;;5032272;28;20116;-60
2022/06/01 02:17:07;;;;;;;3.80;1.98;;;16.10;99.90;;;;;;5016927;28;20028;-60
2022/06/01 02:19:57;;;;;;;3.38;1.50;;;16.10;99.90;;;;;;5031446;28;20061;-60
2022/06/01 02:22:24;;;;;;;7.47;1.60;;;16.10;99.90;;;;;;5027721;28;20042;-60
2022/06/01 02:24:50;;;;;;;4.70;1.80;;;16.00;99.90;;;;;;5031812;28;20033;-60
2022/06/01 02:27:16;;;;;;;2.13;1.70;;;15.90;99.90;;;;;;5031233;28;20021;-60
2022/06/01 02:29:57;;;;;;;2.97;1.80;;;15.80;99.90;;;;;;5031257;28;20049;-60
2022/06/01 02:32:25;;;;;;;3.28;1.95;;;15.80;99.90;;;;;;5031300;28;20017;-60
2022/06/01 02:34:54;;;;;;;3.88;1.75;;;15.70;99.90;;;;;;5031277;28;20040;-60
2022/06/01 02:37:21;;;;;;;3.30;1.70;;;15.70;99.90;;;;;;5032086;28;20037;-60
2022/06/01 02:39:52;;;;;;;3.75;1.73;;;15.70;99.90;;;;;;5031272;28;20136;-60
2022/06/01 02:42:28;;;;;;;4.72;1.90;;;15.80;99.90;;;;;;5031221;28;20025;-60
2022/06/01 02:45:10;;;;;;;2.67;1.63;;;15.70;99.90;;;;;;5031164;28;20108;-60
2022/06/01 02:47:39;;;;;;;2.30;1.75;;;15.70;99.90;;;;;;5030800;28;20116;-60
2022/06/01 02:50:07;;;;;;;3.83;1.75;;;15.60;99.90;;;;;;5031119;28;20030;-60
2022/06/01 02:52:34;;;;;;;2.58;1.83;;;15.70;99.90;;;;;;5031356;28;20041;-60
2022/06/01 02:55:00;;;;;;;4.75;2.00;;;15.50;99.90;;;;;;5031636;28;20064;-60
2022/06/01 02:57:26;;;;;;;5.47;1.80;;;15.50;99.90;;;;;;5031121;28;20033;-60
2022/06/01 02:59:52;;;;;;;2.90;1.80;;;15.40;99.90;;;;;;5030760;28;20017;-60
2022/06/01 03:02:18;;;;;;;3.95;1.70;;;15.40;99.90;;;;;;5030991;28;20049;-60
2022/06/01 03:04:45;;;;;;;4.38;1.73;;;15.40;99.90;;;;;;5031119;28;20397;-60
2022/06/01 03:07:12;;;;;;;4.43;1.85;;;15.60;99.90;;;;;;5031691;28;20037;-60
2022/06/01 03:09:38;;;;;;;2.85;1.80;;;15.50;99.90;;;;;;5030633;28;20036;-60
2022/06/01 03:12:05;;;;;;;2.30;1.65;;;15.30;99.90;;;;;;5030709;28;20544;-60
2022/06/01 03:14:31;;;;;;;4.10;1.90;;;15.40;99.90;;;;;;5030979;28;20075;-60
2022/06/01 03:16:57;;;;;;;6.47;2.05;;;15.30;99.90;;;;;;5030857;28;20053;-60
2022/06/01 03:19:24;;;;;;;4.35;2.28;;;15.40;99.90;;;;;;5031160;28;20022;-60
2022/06/01 03:21:50;;;;;;;3.97;1.75;;;15.30;99.90;;;;;;5032557;28;20034;-60
2022/06/01 03:24:16;;;;;;;4.13;1.95;;;15.30;99.90;;;;;;5034393;28;20822;-60
2022/06/01 03:26:43;;;;;;;2.53;1.55;;;15.40;99.90;;;;;;5034543;28;20034;-60
2022/06/01 03:29:09;;;;;;;3.08;1.92;;;15.50;99.90;;;;;;5034397;28;20037;-60
2022/06/01 03:31:35;;;;;;;2.45;1.80;;;15.30;99.90;;;;;;5034647;28;20022;-60
2022/06/01 03:34:01;;;;;;;4.50;1.77;;;15.30;99.90;;;;;;5034642;28;20390;-60
2022/06/01 03:36:27;;;;;;;4.30;2.30;;;15.10;99.90;;;;;;5034909;28;20033;-60
2022/06/01 03:38:53;;;;;;;3.40;1.80;;;15.10;99.90;;;;;;5034076;28;20874;-60
2022/06/01 03:41:19;;;;;;;2.33;1.67;;;15.00;99.90;;;;;;5034401;28;20042;-60
2022/06/01 03:46:32;;;;;;;3.60;2.00;;;15.10;99.90;;;;;;5031615;28;20072;-60
2022/06/01 03:48:58;;;;;;;3.03;1.80;;;15.00;99.90;;;;;;5033605;28;20022;-60
2022/06/01 03:51:26;;;;;;;3.50;1.70;;;14.90;99.90;;;;;;5033937;28;20029;-60
2022/06/01 03:53:51;;;;;;;2.17;1.70;;;14.80;99.90;;;;;;5034032;28;20029;-60
2022/06/01 03:56:17;;;;;;;2.03;1.58;;;14.80;99.90;;;;;;5034652;28;20522;-60
2022/06/01 03:58:43;;;;;;;3.85;1.85;;;14.70;99.90;;;;;;5034119;28;20028;-60
2022/06/01 04:01:09;;;;;;;4.22;1.70;;;14.40;99.90;;;;;;5034561;28;20501;-60
2022/06/01 04:03:35;;;;;;;5.85;1.98;;;14.40;99.90;;;;;;5033395;28;20034;-60
2022/06/01 04:06:01;;;;;;;3.67;1.77;;;14.50;99.90;;;;;;5033714;28;20055;-61
2022/06/01 04:08:27;;;;;;;4.38;1.80;;;14.30;99.90;;;;;;5033911;28;20398;-60
2022/06/01 04:10:52;;;;;;;3.60;1.80;;;14.30;99.90;;;;;;5034267;28;20109;-61
2022/06/01 04:13:18;;;;;;;5.03;1.85;;;14.30;99.90;;;;;;5034508;28;20029;-60
2022/06/01 04:15:44;;;;;;;6.05;1.85;;;14.20;99.90;;;;;;5033673;28;20033;-60
2022/06/01 04:18:10;;;;;;;3.35;1.90;;;14.20;99.90;;;;;;5033576;28;20030;-60
2022/06/01 04:20:36;;;;;;;2.50;1.60;;;14.10;99.90;;;;;;5033282;28;20060;-60
2022/06/01 04:23:02;;;;;;;1.95;1.60;;;14.10;99.90;;;;;;5034077;28;20026;-61
2022/06/01 04:25:30;;;;;;;4.15;1.88;;;14.20;99.90;;;;;;5033679;28;20386;-60
2022/06/01 04:27:56;;;;;;;3.92;1.75;;;14.30;99.90;;;;;;5033816;28;20042;-61
2022/06/01 04:30:22;;;;;;;6.60;1.90;;;14.30;99.90;;;;;;5033337;28;20502;-60
2022/06/01 04:32:50;;;;;;;2.88;1.60;;;14.30;99.90;;;;;;5032699;28;20142;-60
2022/06/01 04:35:18;;;;;;;2.60;1.67;;;14.30;99.90;;;;;;5033405;28;20037;-61
2022/06/01 04:37:44;;;;;;;3.47;1.88;;;14.30;99.90;;;;;;5033416;28;20104;-60
2022/06/01 04:40:12;;;;;;;3.05;1.80;;;14.20;99.90;;;;;;5032469;28;20057;-60
2022/06/01 04:42:39;;;;;;;6.13;1.73;;;14.30;99.90;;;;;;5033516;28;20029;-60
2022/06/01 04:45:07;;;;;;;2.95;1.75;;;14.50;99.90;;;;;;5032785;28;20029;-60
2022/06/01 04:47:32;;;;;;;3.08;1.80;;;14.50;99.90;;;;;;5032858;28;20033;-60
2022/06/01 04:49:58;;;;;;;3.22;1.58;;;14.50;99.90;;;;;;5048455;28;20095;-60
2022/06/01 04:52:24;;;;;;;4.18;1.95;;;14.50;99.90;;;;;;5034069;28;20021;-60
2022/06/01 04:54:50;;;;;;;4.22;2.00;;;14.40;99.90;;;;;;5031933;28;20038;-60
2022/06/01 04:57:16;;;;;;;2.42;1.70;;;14.40;99.90;;;;;;5032756;28;20022;-60
2022/06/01 04:59:42;;;;;;;5.75;1.70;;;14.40;99.90;;;;;;5032946;28;20036;-60
2022/06/01 05:02:08;;;;;;;4.47;1.73;;;14.40;99.90;;;;;;5032923;28;20478;-60
2022/06/01 05:04:34;;;;;;;3.55;1.50;;;14.30;99.90;;;;;;5032858;28;20028;-60
2022/06/01 05:07:00;;;;;;;3.72;1.92;;;15.20;99.90;;;;;;5033782;28;20021;-60
2022/06/01 05:09:26;;;;;;;2.38;1.60;;;15.50;99.90;;;;;;5032447;28;20487;-60
2022/06/01 05:11:52;;;;;;;3.25;1.70;;;15.80;99.90;;;;;;5032432;28;20029;-60
2022/06/01 05:14:18;;;;;;;4.82;1.85;;;15.60;99.90;;;;;;5032417;28;20533;-60
2022/06/01 05:16:44;;;;;;;4.53;1.60;;;15.80;99.90;;;;;;5032991;28;20033;-61
2022/06/01 05:19:09;;;;;;;5.28;1.55;;;15.90;99.90;;;;;;5033146;28;20026;-60
2022/06/01 05:21:35;;;;;;;2.30;1.73;;;16.00;99.90;;;;;;5032552;28;20513;-60
2022/06/01 05:24:01;;;;;;;5.05;1.67;;;17.30;99.90;;;;;;5032192;28;20095;-60
2022/06/01 05:26:27;;;;;;;6.82;1.85;;;18.10;99.90;;;;;;5032720;28;20030;-60
2022/06/01 05:28:52;;;;;;;4.25;1.60;;;18.00;99.90;;;;;;5031950;28;20033;-60
2022/06/01 05:31:19;;;;;;;3.00;1.40;;;18.80;99.90;;;;;;5032996;28;20025;-61
2022/06/01 05:33:45;;;;;;;5.90;1.60;;;18.90;99.90;;;;;;5032238;28;20091;-60
2022/06/01 05:36:13;;;;;;;6.90;1.80;;;19.60;99.90;;;;;;5032026;28;20489;-61
2022/06/01 05:38:39;;;;;;;4.35;1.90;;;20.70;99.30;;;;;;5031819;28;20050;-60
2022/06/01 05:41:06;;;;;;;6.88;1.75;;;20.40;99.90;;;;;;5032071;28;20073;-60
2022/06/01 05:43:33;;;;;;;5.57;1.90;;;20.90;99.00;;;;;;5032098;28;20406;-60
2022/06/01 05:45:59;;;;;;;2.65;1.70;;;20.80;98.70;;;;;;5031414;28;20036;-60
2022/06/01 05:48:25;;;;;;;4.47;1.45;;;20.90;97.80;;;;;;5031654;28;20433;-60
2022/06/01 05:50:51;;;;;;;4.05;1.63;;;21.80;97.20;;;;;;5031764;28;20047;-60
2022/06/01 05:53:16;;;;;;;2.75;1.48;;;22.00;96.10;;;;;;5032223;28;20021;-60
2022/06/01 05:55:42;;;;;;;4.28;1.75;;;22.40;95.90;;;;;;5031713;28;20439;-61
2022/06/01 05:58:21;;;;;;;3.15;1.40;;;22.90;94.00;;;;;;5032066;28;20635;-60
2022/06/01 06:00:48;;;;;;;2.22;1.30;;;22.70;95.00;;;;;;5031793;28;20033;-60
2022/06/01 06:03:15;;;;;;;3.08;1.40;;;22.80;94.10;;;;;;5031753;28;20040;-61
2022/06/01 06:08:26;;;;;;;4.47;1.50;;;22.90;94.90;;;;;;5032141;28;20080;-61
2022/06/01 06:10:52;;;;;;;2.55;1.20;;;23.30;93.10;;;;;;5031410;28;20399;-60
2022/06/01 06:13:18;;;;;;;2.60;1.60;;;24.80;92.30;;;;;;5031919;28;20063;-61
2022/06/01 06:15:43;;;;;;;2.83;1.50;;;24.60;91.70;;;;;;5032038;28;20033;-61
2022/06/01 06:18:13;;;;;;;1.85;1.30;;;25.00;90.90;;;;;;5058772;28;20021;-61
2022/06/01 06:20:46;;;;;;;3.30;1.40;;;25.20;90.80;;;;;;5030737;28;20030;-60
2022/06/01 06:23:13;;;;;;;3.30;1.37;;;27.00;86.90;;;;;;5028791;28;20394;-60
2022/06/01 06:25:39;;;;;;;3.80;1.38;;;27.10;86.80;;;;;;5030900;28;20272;-61
2022/06/01 06:28:05;;;;;;;4.13;1.23;;;26.80;88.10;;;;;;5030631;28;20448;-60
2022/06/01 06:30:31;;;;;;;2.65;1.73;;;27.20;84.00;;;;;;5031077;28;20056;-61
2022/06/01 06:32:57;;;;;;;3.42;1.58;;;26.30;88.70;;;;;;5030804;28;20439;-61
2022/06/01 06:35:23;;;;;;;2.83;1.40;;;26.50;87.70;;;;;;5030719;28;20036;-60
2022/06/01 06:37:48;;;;;;;5.18;1.50;;;27.70;85.60;;;;;;5030666;28;20037;-60
2022/06/01 06:40:14;;;;;;;5.28;1.42;;;28.60;80.20;;;;;;5030134;28;20111;-60
2022/06/01 06:42:41;;;;;;;1.60;1.50;;;28.50;82.30;;;;;;5030368;28;20067;-61
2022/06/01 06:45:07;;;;;;;2.85;1.50;;;28.20;83.60;;;;;;5030802;28;20487;-61
2022/06/01 06:47:34;;;;;;;3.65;1.70;;;29.30;80.40;;;;;;5062570;28;20510;-62
2022/06/01 06:50:06;;;;;;;4.88;1.40;;;29.00;80.70;;;;;;5031305;28;20040;-61
2022/06/01 06:52:32;;;;;;;3.53;1.23;;;28.10;81.30;;;;;;5030767;28;20370;-61
2022/06/01 06:54:57;;;;;;;1.90;1.20;;;28.00;81.60;;;;;;5029793;28;20022;-62
2022/06/01 06:57:23;;;;;;;2.60;1.17;;;29.40;78.50;;;;;;5034206;28;20130;-62
2022/06/01 06:59:49;;;;;;;2.95;1.30;;;27.80;80.80;;;;;;5035320;28;20104;-62
2022/06/01 07:02:16;;;;;;;3.85;1.30;;;25.10;86.80;;;;;;5035068;28;20360;-62
2022/06/01 07:04:42;;;;;;;3.53;1.33;;;24.90;88.00;;;;;;5035113;28;20500;-63
2022/06/01 07:07:08;;;;;;;4.07;1.40;;;22.80;90.80;;;;;;5035551;28;20112;-63
2022/06/01 07:09:34;;;;;;;1.75;1.10;;;23.00;91.20;;;;;;5033385;28;20128;-62
2022/06/01 07:11:59;;;;;;;3.03;1.30;;;22.20;92.20;;;;;;5034573;28;20022;-62
2022/06/01 07:14:25;;;;;;;4.88;1.38;;;22.10;92.30;;;;;;5035153;28;20069;-62
2022/06/01 07:16:51;;;;;;;2.53;1.30;;;22.50;92.10;;;;;;5034778;28;20029;-62
2022/06/01 07:19:16;;;;;;;4.88;1.42;;;22.00;92.90;;;;;;5035266;28;20466;-62
2022/06/01 07:21:42;;;;;;;4.22;1.40;;;21.80;93.60;;;;;;5034715;28;20037;-62
2022/06/01 07:24:08;;;;;;;2.10;1.30;;;22.00;93.00;;;;;;5034155;28;20025;-62
2022/06/01 07:26:40;;;;;;;2.30;1.42;;;22.20;93.50;;;;;;5034270;28;20079;-62
2022/06/01 07:29:06;;;;;;;6.78;1.60;;;22.30;93.30;;;;;;5034546;28;20048;-62
2022/06/01 07:31:33;;;;;;;4.78;1.40;;;22.20;93.20;;;;;;5034763;28;20029;-62
2022/06/01 07:33:59;;;;;;;3.90;1.40;;;22.00;94.40;;;;;;5035190;28;20402;-62
2022/06/01 07:36:26;;;;;;;3.80;1.30;;;22.10;94.00;;;;;;5034272;28;20034;-62
2022/06/01 07:44:41;;;;;;;3.60;1.50;;;22.10;94.10;;;;;;5030498;28;20057;-62
2022/06/01 07:47:09;;;;;;;2.67;1.40;;;21.80;94.80;;;;;;5018110;28;20040;-62
2022/06/01 07:49:36;;;;;;;2.65;1.33;;;21.60;95.50;;;;;;5016205;28;20420;-62
2022/06/01 07:52:09;;;;;;;4.40;1.48;;;22.20;94.40;;;;;;5019566;28;20037;-62
2022/06/01 07:54:39;;;;;;;2.75;1.35;;;22.20;94.70;;;;;;5020468;28;20030;-62
2022/06/01 07:57:05;;;;;;;3.55;1.63;;;22.40;95.00;;;;;;5020718;28;20029;-62
2022/06/01 07:59:32;;;;;;;2.35;1.38;;;23.30;93.70;;;;;;5021152;28;20033;-62
2022/06/01 08:01:58;;;;;;;4.75;1.52;;;22.80;93.80;;;;;;5016323;28;20043;-62
2022/06/01 08:04:24;;;;;;;2.30;1.30;;;23.00;94.10;;;;;;5028657;28;20537;-62
2022/06/01 08:06:50;;;;;;;2.55;1.50;;;22.30;94.30;;;;;;5019892;28;20053;-62
2022/06/01 08:09:16;;;;;;;2.05;1.42;;;22.60;94.80;;;;;;5020215;28;20030;-62
2022/06/01 08:14:26;;;;;;;6.72;1.60;;;23.10;93.80;;;;;;5020406;28;20037;-62
2022/06/01 08:16:51;;;;;;;5.53;1.52;;;23.90;93.10;;;;;;5015825;28;20025;-62
2022/06/01 08:19:17;;;;;;;5.25;1.55;;;24.70;92.20;;;;;;5017224;28;20040;-62
2022/06/01 08:21:44;;;;;;;3.00;1.35;;;25.00;91.00;;;;;;5031758;28;20116;-62
2022/06/01 08:24:11;;;;;;;3.20;1.90;;;24.40;92.00;;;;;;5033580;28;20375;-62
2022/06/01 08:26:38;;;;;;;7.15;1.83;;;27.30;88.40;;;;;;5033388;28;20056;-62
2022/06/01 08:29:04;;;;;;;2.75;1.50;;;31.60;80.20;;;;;;5033460;28;20087;-62
2022/06/01 08:31:31;;;;;;;3.67;1.60;;;31.50;78.80;;;;;;5033618;28;20448;-62
2022/06/01 08:33:58;;;;;;;3.50;1.60;;;31.40;77.20;;;;;;5033793;28;20030;-62
2022/06/01 08:36:24;;;;;;;4.55;1.42;;;31.20;76.70;;;;;;5033077;28;20029;-63
2022/06/01 08:38:50;;;;;;;4.20;1.58;;;32.10;74.70;;;;;;5033048;28;20041;-63
2022/06/01 08:41:20;;;;;;;5.20;1.50;;;29.50;78.70;;;;;;5033117;28;20521;-63
2022/06/01 08:43:54;;;;;;;2.60;1.30;;;31.60;76.50;;;;;;5033330;28;20045;-63
2022/06/01 08:46:21;;;;;;;3.38;1.40;;;34.60;72.90;;;;;;5034262;28;20148;-63
2022/06/01 08:48:56;;;;;;;5.57;1.70;;;34.20;70.80;;;;;;5031725;28;20034;-63
2022/06/01 08:51:26;;;;;;;4.07;1.80;;;31.50;73.60;;;;;;5032916;28;20532;-63
2022/06/01 08:53:52;;;;;;;4.63;1.77;;;31.70;72.40;;;;;;5032516;28;20497;-63
2022/06/01 08:56:26;;;;;;;3.42;1.67;;;30.70;74.30;;;;;;5033025;28;20040;-63
2022/06/01 08:59:06;;;;;;;8.65;1.80;;;29.80;76.80;;;;;;5032887;28;20482;-63
2022/06/01 09:02:02;;;;;;;4.47;1.55;;;29.90;76.50;;;;;;5030651;28;20113;-62
2022/06/01 09:04:47;;;;;;;3.85;1.60;;;31.00;73.90;;;;;;5030110;28;20064;-63
2022/06/01 09:07:37;;;;;;;6.35;1.80;;;30.80;74.30;;;;;;5031913;28;20033;-63
2022/06/01 09:10:22;;;;;;;3.72;1.60;;;30.90;74.80;;;;;;5032844;28;20045;-63
2022/06/01 09:12:54;;;;;;;6.35;1.98;;;33.10;72.00;;;;;;5032470;28;20048;-62
2022/06/01 09:15:25;;;;;;;6.13;1.70;;;31.80;72.50;;;;;;5032506;28;20033;-63
2022/06/01 09:17:53;;;;;;;3.92;1.60;;;30.90;73.90;;;;;;5032644;28;20029;-62
2022/06/01 09:23:12;;;;;;;6.07;1.70;;;34.20;72.20;;;;;;5018235;28;20064;-63
2022/06/01 09:25:38;;;;;;;3.20;1.80;;;33.00;72.10;;;;;;5032589;28;20034;-63
2022/06/01 09:28:28;;;;;;;3.95;1.50;;;30.70;76.30;;;;;;5032848;28;20009;-63
2022/06/01 09:31:27;;;;;;;8.77;1.77;;;33.10;72.60;;;;;;5032605;28;20041;-63
2022/06/01 09:34:12;;;;;;;3.75;1.60;;;32.70;72.00;;;;;;5060039;28;20033;-63
2022/06/01 09:36:56;;;;;;;3.10;1.60;;;31.70;71.90;;;;;;5032067;28;20108;-63
2022/06/01 09:39:22;;;;;;;3.55;1.70;;;31.10;73.40;;;;;;5032292;28;20573;-63
2022/06/01 09:41:49;;;;;;;2.78;1.50;;;32.40;72.70;;;;;;5028064;28;20034;-63
2022/06/01 09:44:19;;;;;;;5.68;1.88;;;32.30;72.20;;;;;;5032134;28;20370;-63
2022/06/01 09:46:47;;;;;;;4.95;1.63;;;31.90;73.20;;;;;;5032127;28;20029;-63
2022/06/01 09:49:29;;;;;;;4.10;1.58;;;32.00;73.20;;;;;;5032334;28;20524;-63
2022/06/01 09:52:02;;;;;;;4.63;1.40;;;29.60;76.70;;;;;;5050955;28;20037;-63
2022/06/01 09:54:34;;;;;;;4.05;1.55;;;29.10;77.00;;;;;;5028799;28;20055;-63
2022/06/01 09:57:27;;;;;;;2.70;1.45;;;29.70;76.80;;;;;;5031710;28;20040;-63
2022/06/01 10:06:06;;;;;;;3.95;1.58;;;29.40;75.50;;;;;;5024615;28;20029;-63
2022/06/01 10:08:33;;;;;;;3.65;1.60;;;29.90;75.90;;;;;;5024993;28;20045;-63
2022/06/01 10:11:00;;;;;;;4.68;1.70;;;28.70;77.00;;;;;;5029280;28;20048;-63
2022/06/01 10:13:49;;;;;;;2.88;1.65;;;29.00;78.40;;;;;;5026248;28;20031;-63
2022/06/01 10:16:24;;;;;;;2.22;1.70;;;29.00;78.40;;;;;;5015648;28;20038;-63
2022/06/01 10:18:52;;;;;;;2.75;1.58;;;28.70;79.30;;;;;;5018224;28;20037;-63
2022/06/01 10:21:25;;;;;;;1.48;1.35;;;28.50;79.40;;;;;;5018219;28;20030;-63
2022/06/01 10:24:00;;;;;;;3.92;1.60;;;28.80;77.80;;;;;;5018119;28;20092;-62
2022/06/01 10:26:31;;;;;;;3.47;1.40;;;28.20;79.00;;;;;;5017768;28;20053;-63
2022/06/01 10:29:07;;;;;;;3.20;1.70;;;29.40;78.60;;;;;;5013897;28;20025;-63
2022/06/01 10:31:56;;;;;;;2.78;1.48;;;29.20;77.50;;;;;;5026148;28;20033;-63
2022/06/01 10:34:53;;;;;;;3.63;1.80;;;29.00;77.40;;;;;;5014130;28;20029;-63
2022/06/01 10:37:46;;;;;;;3.17;1.50;;;29.40;76.70;;;;;;5031278;28;20125;-63
2022/06/01 10:40:16;;;;;;;;;;;29.10;76.20;;;;;;5030841;28;20526;-63
2022/06/01 10:43:16;;;;;;;2.47;1.73;;;29.50;76.20;;;;;;5031262;28;19925;-63
2022/06/01 10:46:13;;;;;;;3.40;1.50;;;30.20;76.50;;;;;;5031000;28;20040;-63
2022/06/01 10:48:49;;;;;;;1.42;1.33;;;30.00;76.60;;;;;;5030611;28;20025;-63
2022/06/01 10:51:27;;;;;;;2.45;1.55;;;29.60;76.50;;;;;;5030980;28;20040;-63
2022/06/01 10:54:15;;;;;;;2.20;1.70;;;30.20;76.10;;;;;;5031268;28;20029;-63
2022/06/01 10:56:41;;;;;;;1.75;1.50;;;29.30;75.80;;;;;;5030946;28;20041;-63
2022/06/01 10:59:12;;;;;;;3.28;1.60;;;29.20;76.70;;;;;;5030981;28;20116;-63
2022/06/01 11:01:41;;;;;;;1.95;1.40;;;29.40;76.30;;;;;;5031015;28;20033;-63
2022/06/01 11:04:43;;;;;;;4.80;1.50;;;29.50;77.10;;;;;;5029117;28;20030;-63
2022/06/01 11:07:30;;;;;;;2.10;1.60;;;30.20;75.10;;;;;;5029815;28;20029;-63
2022/06/01 11:10:26;;;;;;;2.65;1.50;;;30.90;74.80;;;;;;5030958;28;20044;-63
2022/06/01 11:13:00;;;;;;;3.88;1.63;;;30.00;76.40;;;;;;5031069;28;20052;-63
2022/06/01 11:15:52;;;;;;;2.75;1.60;;;30.50;75.30;;;;;;5030645;28;20083;-63
2022/06/01 11:18:56;;;;;;;2.35;1.63;;;30.50;74.80;;;;;;5030251;28;20114;-63
2022/06/01 11:21:59;;;;;;;2.08;1.45;;;30.10;76.30;;;;;;5031164;28;20029;-63
2022/06/01 11:24:31;;;;;;;2.17;1.60;;;30.00;76.20;;;;;;5030754;28;20116;-63
2022/06/01 11:27:18;;;;;;;3.75;1.55;;;30.10;76.40;;;;;;5031137;28;20029;-63
2022/06/01 11:29:58;;;;;;;2.83;1.45;;;29.30;76.80;;;;;;5030582;28;20037;-63
2022/06/01 11:32:49;;;;;;;3.95;1.55;;;29.70;76.80;;;;;;5030520;28;20121;-63
2022/06/01 11:35:23;;;;;;;2.58;1.70;;;29.70;76.60;;;;;;5017761;28;20018;-63
2022/06/01 11:37:54;;;;;;;3.13;1.50;;;29.50;76.00;;;;;;5030782;28;20390;-63
2022/06/01 11:40:27;;;;;;;1.80;1.60;;;29.20;76.40;;;;;;5031213;28;20091;-63
2022/06/01 11:43:03;;;;;;;3.05;1.67;;;29.50;77.00;;;;;;5032494;28;20080;-64
2022/06/01 11:45:48;;;;;;;1.98;1.65;;;29.60;77.30;;;;;;5034334;28;20060;-63
2022/06/01 11:48:29;;;;;;;2.25;1.70;;;30.00;75.90;;;;;;5034188;28;20029;-63
2022/06/01 11:51:15;;;;;;;2.65;1.70;;;30.00;75.80;;;;;;5034076;28;20350;-63
2022/06/01 11:53:57;;;;;;;2.88;1.60;;;29.90;76.50;;;;;;5034024;28;20509;-63
2022/06/01 11:56:25;;;;;;;6.15;2.00;;;29.70;76.30;;;;;;5033937;28;20030;-63
2022/06/01 11:59:32;;;;;;;3.05;1.65;;;29.90;75.80;;;;;;5034265;28;20111;-63
2022/06/01 12:01:59;;;;;;;2.20;1.70;;;30.10;75.90;;;;;;5011738;28;20038;-63
2022/06/01 12:04:30;;;;;;;3.80;1.60;;;30.50;75.40;;;;;;5012750;28;20041;-62
2022/06/01 12:07:05;;;;;;;3.15;1.75;;;30.30;75.40;;;;;;5012458;28;20034;-63
2022/06/01 12:10:13;;;;;;;3.38;1.70;;;30.00;77.20;;;;;;5012286;28;20038;-63
2022/06/01 12:12:39;;;;;;;2.88;1.70;;;30.10;76.70;;;;;;4972992;28;20073;-62
2022/06/01 12:15:39;;;;;;;2.65;1.83;;;30.00;76.40;;;;;;4972349;28;20047;-63
2022/06/01 12:18:19;;;;;;;3.60;1.55;;;29.90;75.70;;;;;;4964245;28;20033;-63
2022/06/01 12:20:52;;;;;;;3.13;1.70;;;29.60;76.00;;;;;;4972622;28;20109;-63
2022/06/01 12:29:04;;;;;;;4.00;1.90;;;30.40;75.00;;;;;;4972444;28;20129;-63
2022/06/01 12:31:36;;;;;;;5.88;1.83;;;30.60;75.60;;;;;;4973074;28;20053;-63
2022/06/01 12:34:16;;;;;;;5.33;1.73;;;30.20;76.60;;;;;;4972991;28;20033;-63
2022/06/01 12:37:10;;;;;;;3.58;1.70;;;29.80;77.10;;;;;;4972437;28;20027;-63
2022/06/01 12:39:39;;;;;;;3.28;1.70;;;29.80;75.90;;;;;;4975107;28;20082;-63
2022/06/01 12:42:12;;;;;;;2.45;1.70;;;29.60;76.10;;;;;;4975740;28;20054;-63
2022/06/01 12:44:40;;;;;;;3.38;2.00;;;29.70;77.50;;;;;;4975123;28;20446;-62
2022/06/01 12:47:06;;;;;;;3.63;1.90;;;30.00;76.80;;;;;;4976744;28;20041;-62
2022/06/01 12:49:40;;;;;;;3.53;1.73;;;29.80;76.70;;;;;;5030023;28;20034;-62
2022/06/01 12:52:06;;;;;;;2.92;1.92;;;29.90;78.20;;;;;;5033315;28;20099;-63
2022/06/01 12:54:52;;;;;;;2.45;1.55;;;30.30;77.40;;;;;;5032966;28;20079;-62
2022/06/01 12:57:30;;;;;;;1.90;1.60;;;30.10;76.00;;;;;;5033006;28;20017;-63
2022/06/01 13:00:19;;;;;;;2.40;1.70;;;29.70;76.50;;;;;;5032904;28;20021;-62
2022/06/01 13:02:45;;;;;;;4.18;1.88;;;30.10;76.60;;;;;;5032822;28;20063;-62
2022/06/01 13:05:17;;;;;;;2.97;1.70;;;30.00;75.50;;;;;;5032069;28;20116;-64
2022/06/01 13:07:46;;;;;;;1.75;1.50;;;29.50;76.60;;;;;;5032401;28;20018;-62
2022/06/01 13:10:23;;;;;;;1.95;1.77;;;29.90;76.50;;;;;;5032628;28;20036;-63
2022/06/01 13:12:49;;;;;;;3.05;1.73;;;30.10;77.00;;;;;;5031412;28;20428;-62
2022/06/01 13:15:23;;;;;;;2.78;1.80;;;30.00;77.50;;;;;;5032583;28;20109;-63
2022/06/01 13:17:54;;;;;;;4.05;1.95;;;29.40;76.90;;;;;;5031953;28;20113;-63
2022/06/01 13:20:34;;;;;;;3.92;1.90;;;30.00;75.90;;;;;;5032441;28;20030;-61
2022/06/01 13:23:01;;;;;;;3.08;1.83;;;30.30;74.30;;;;;;5017392;28;20259;-62
2022/06/01 13:25:35;;;;;;;4.38;2.13;;;30.50;74.50;;;;;;5033194;28;20183;-61
2022/06/01 13:28:01;;;;;;;4.68;1.83;;;30.30;74.90;;;;;;5031579;28;20474;-62
2022/06/01 13:30:31;;;;;;;3.03;1.60;;;30.10;75.30;;;;;;5032628;28;20136;-60
2022/06/01 13:32:57;;;;;;;2.80;2.03;;;30.00;76.80;;;;;;5032257;28;20030;-61
2022/06/01 13:35:54;;;;;;;4.60;2.00;;;30.40;77.40;;;;;;5032094;28;20159;-61
2022/06/01 13:38:34;;;;;;;3.05;1.90;;;29.90;76.20;;;;;;5017782;28;20528;-61
2022/06/01 13:41:09;;;;;;;2.28;1.85;;;30.20;75.90;;;;;;5016975;28;20021;-61
2022/06/01 13:43:43;;;;;;;5.15;1.80;;;30.30;75.50;;;;;;5032059;28;20025;-61